Terminal Aerodrome Forecast
Issued by NWS

Home | Current Version | Previous Version | Text Only | Print | Product List | Glossary On
Versions: 1 2 3 4 5 6 7 8 9 10 11 12 13 14 15
658
FTUS43 KGRR 270232 AAA
TAFBTL
TAF AMD
KBTL 270232Z 2703/2724 29007KT P6SM SKC
     FM271500 29012G20KT P6SM BKN045=

USA.gov is the U.S. government's official web portal to all federal, state and local government web resources and services.